Detall de PIREP

Printer-friendly versionPDF version

[2012/09/02 17:30:00]
Flight IATA:CT1022
Pilot Number:042
Company ICAO:CAT
Aircraft Type:B763/F
PAX:0
Departing Airport: LPAZ
Destination Airport: LEBL
Alternate Airport:LEPA
Online: VATSIM
Route:DOKAS DCT 3820N DCT KOMUT DCT BUSEN DCT MAGUM DCT PORLI UN870 PONEN UW800 CASPE
Flight Level:F370
No Slew and time accel
No pause
Crash detect
Detect pilot in Cockpit between each 30 and 45 minutes
17:30 Zero fuel Weight: 197000 Lbs, Fuel Weight: 161711 Lbs
17:30 VATSIM:LPAZ 021700Z 03008KT 9999 SCT032 23/// Q1025
17:30 VATSIM:LEBL 021700Z 18004KT 130V220 9999 FEW020 SCT055 24/11 Q1020 NOSIG
17:31 VOICE CATALONIAN/BOEING TRANSPORT
17:40 Parking Brakes off
17:44 Take-off
17:44 Take off Weight: 356379 Lbs
17:44 Wind: 042º @ 008 Knots Heading: 352º
17:44 POS N36º 58´ 47´´ W025º 10´ 20´´
17:44 Gear Up: 185 Knots
17:44 Flaps:3 at 185 Knots
17:44 Flaps:2 at 163 Knots
17:45 Flaps:0 at 227 Knots
17:59 Wind:067º@027 Knots Heading: 077º Ground Speed: 428 Knots Altitude 35780 ft
17:59 TOC
17:59 Fuel Weight: 152032 Lb
18:01 TOD
18:01 Fuel Weight: 151690 Lb
18:02 TOC
18:02 Fuel Weight: 151613 Lb
18:14 Wind:071º@023 Knots Heading: 074º Ground Speed: 434 Knots Altitude 37306 ft
18:29 Wind:051º@022 Knots Heading: 087º Ground Speed: 440 Knots Altitude 37250 ft
18:44 Wind:030º@027 Knots Heading: 087º Ground Speed: 445 Knots Altitude 37191 ft
18:59 Wind:030º@018 Knots Heading: 079º Ground Speed: 449 Knots Altitude 37135 ft
19:14 Wind:015º@020 Knots Heading: 080º Ground Speed: 452 Knots Altitude 37122 ft
19:29 Wind:341º@045 Knots Heading: 057º Ground Speed: 453 Knots Altitude 38116 ft
19:44 Wind:042º@022 Knots Heading: 064º Ground Speed: 438 Knots Altitude 38139 ft
19:59 Wind:061º@027 Knots Heading: 067º Ground Speed: 431 Knots Altitude 38267 ft
20:14 Wind:080º@016 Knots Heading: 076º Ground Speed: 442 Knots Altitude 38270 ft
20:19 TOD
20:19 Fuel Weight: 128887 Lb
20:29 Wind:291º@061 Knots Heading: 074º Ground Speed: 510 Knots Altitude 36309 ft
20:44 Wind:300º@018 Knots Heading: 084º Ground Speed: 344 Knots Altitude 14429 ft
20:48 Flaps:1 at 238 Knots
20:51 Flaps:2 at 218 Knots
20:54 Flaps:3 at 204 Knots
20:58 Flaps:4 at 175 Knots
20:58 Gear Down: 172 Knots
20:58 Flaps:5 at 173 Knots
20:58 Flaps:4 at 172 Knots
20:58 Flaps:6 at 171 Knots
20:59 Wind:293º@006 Knots Heading: 247º Ground Speed: 167 Knots Altitude 2148 ft
21:01 TouchDown:Rate -270 ft/min Speed: 152 Knots
21:01 VATSIM:LEBL 022030Z 30006KT 220V340 9999 FEW020 21/12 Q1021 NOSIG
21:01 Land
21:01 Wind:301º@006 Knots
21:01 Heading: 247º
21:01 Flight Duration: 03:17
21:01 Landing Weight: 320715 Lbs
21:01 POS N41º 17´ 59´´ E002º 05´ 09´´
21:02 Parking brakes on
21:02 Block to Block Duration: 03:22
21:02 Final Fuel: 123628 Lbls
21:02 Spent Fuel: 38082 Lbls
21:02 Flight Length: 1279 NM
21:02 TOD Land Length: 152 NM

Exportar CSV

Powered by Drupal - Modified by Danger4k